Time;durP1;ratioP1;P1;durP2;ratioP2;P2;SDS_P1;SDS_P2;PMS_P1;PMS_P2;Temp;Humidity;BMP_temperature;BMP_pressure;BME280_temperature;BME280_humidity;BME280_pressure;Samples;Min_cycle;Max_cycle;Signal;HPM_P1;HPM_P2
2021/12/02 00:02:08;;;;;;;3.55;1.00;;;;;;;-149.78;100.00;50612.25;5045568;28;20029;-64
2021/12/02 00:04:38;;;;;;;3.85;0.75;;;;;;;-149.78;100.00;50602.47;5503579;23;20151;-64
2021/12/02 00:07:06;;;;;;;5.30;1.30;;;;;;;-149.78;100.00;50588.78;5016085;28;20188;-63
2021/12/02 00:09:35;;;;;;;3.10;1.08;;;;;;;-149.78;100.00;50580.97;5024692;28;20036;-63
2021/12/02 00:12:02;;;;;;;5.70;1.60;;;;;;;-149.78;100.00;50584.88;5025252;28;20041;-64
2021/12/02 00:14:29;;;;;;;2.83;1.05;;;;;;;-149.78;100.00;50577.06;5028373;28;20037;-63
2021/12/02 00:22:10;;;;;;;7.15;1.00;;;;;;;-149.78;100.00;50580.97;5032567;28;20073;-64
2021/12/02 00:24:39;;;;;;;3.78;1.13;;;;;;;-149.78;100.00;50573.16;5031101;28;20033;-64
2021/12/02 00:27:07;;;;;;;5.93;0.95;;;;;;;-149.78;100.00;50577.06;5033900;28;20049;-64
2021/12/02 00:29:35;;;;;;;3.35;0.95;;;;;;;-149.78;100.00;50557.50;5024081;28;20033;-64
2021/12/02 00:32:07;;;;;;;2.78;0.52;;;;;;;-149.78;100.00;50569.22;5032975;28;20056;-64
2021/12/02 00:34:41;;;;;;;9.13;0.98;;;;;;;-149.78;100.00;50543.81;5032304;28;20029;-64
2021/12/02 00:37:08;;;;;;;3.50;0.75;;;;;;;-149.78;100.00;50600.53;5033904;28;20068;-64
2021/12/02 00:39:34;;;;;;;9.00;1.10;;;;;;;-149.78;100.00;50606.41;5031612;28;20025;-64
2021/12/02 00:42:00;;;;;;;4.85;0.77;;;;;;;-149.78;100.00;50620.09;5030732;28;20033;-64
2021/12/02 00:44:29;;;;;;;2.50;0.70;;;;;;;-149.78;100.00;50573.16;5033609;28;20025;-63
2021/12/02 00:46:55;;;;;;;4.30;0.85;;;;;;;-149.78;100.00;50569.22;5035312;28;20075;-64
2021/12/02 00:49:21;;;;;;;6.68;0.88;;;;;;;-149.78;100.00;50584.88;5033824;28;20433;-64
2021/12/02 00:51:53;;;;;;;2.08;0.60;;;;;;;-149.78;100.00;50565.31;5032512;28;20112;-64
2021/12/02 00:54:23;;;;;;;2.05;0.70;;;;;;;-149.78;100.00;50592.72;5033755;28;20366;-64
2021/12/02 00:56:49;;;;;;;4.32;0.63;;;;;;;-149.78;100.00;50577.06;5029418;28;20518;-63
2021/12/02 00:59:16;;;;;;;1.13;0.47;;;;;;;-149.78;100.00;50580.97;5033708;28;20087;-64
2021/12/02 01:01:42;;;;;;;6.22;0.82;;;;;;;-149.78;100.00;50588.78;5034523;28;20487;-64
2021/12/02 01:04:23;;;;;;;4.68;0.98;;;;;;;-149.78;100.00;50520.34;5033083;28;20116;-64
2021/12/02 01:06:49;;;;;;;2.15;0.73;;;;;;;-149.78;100.00;50561.41;5035089;28;20037;-64
2021/12/02 01:09:15;;;;;;;11.00;1.23;;;;;;;-149.78;100.00;50537.94;5032439;28;20496;-64
2021/12/02 01:11:41;;;;;;;3.97;0.90;;;;;;;-149.78;100.00;50549.69;5031433;28;20144;-64
2021/12/02 01:14:09;;;;;;;3.75;1.00;;;;;;;-149.78;100.00;50557.50;5030234;28;20037;-64
2021/12/02 01:16:36;;;;;;;4.18;0.60;;;;;;;-149.78;100.00;50590.75;5031947;28;20037;-64
2021/12/02 01:19:03;;;;;;;2.03;0.63;;;;;;;-149.78;100.00;50541.84;5032765;28;20495;-64
2021/12/02 01:21:29;;;;;;;4.05;0.70;;;;;;;-149.78;100.00;50545.75;5032638;28;20026;-64
2021/12/02 01:24:00;;;;;;;1.30;0.70;;;;;;;-149.78;100.00;50580.97;5032998;28;20043;-64
2021/12/02 01:26:28;;;;;;;4.65;0.73;;;;;;;-149.78;100.00;50555.53;5030551;28;20061;-64
2021/12/02 01:28:55;;;;;;;2.40;0.50;;;;;;;-149.78;100.00;50594.66;5032455;28;20045;-64
2021/12/02 01:31:21;;;;;;;8.63;0.57;;;;;;;-149.78;100.00;50571.19;5032941;28;20120;-64
2021/12/02 01:33:47;;;;;;;3.97;1.23;;;;;;;-149.78;100.00;50569.22;5029670;28;20041;-64
2021/12/02 01:36:14;;;;;;;4.93;0.65;;;;;;;-149.78;100.00;50580.97;5033410;28;20484;-64
2021/12/02 01:38:40;;;;;;;1.27;0.60;;;;;;;-149.78;100.00;50522.28;5032923;28;20102;-64
2021/12/02 01:41:06;;;;;;;2.63;0.68;;;;;;;-149.78;100.00;50575.09;5032756;28;20048;-64
2021/12/02 01:43:53;;;;;;;2.00;0.60;;;;;;;-149.78;100.00;50553.59;5022598;28;20026;-64
2021/12/02 01:46:23;;;;;;;3.78;0.75;;;;;;;-149.78;100.00;50534.03;5044749;28;20088;-64
2021/12/02 01:48:58;;;;;;;4.53;0.90;;;;;;;-149.78;100.00;50592.72;5032978;28;20029;-64
2021/12/02 01:51:26;;;;;;;3.30;0.70;;;;;;;-149.78;100.00;50565.31;5031901;28;20499;-64
2021/12/02 01:54:02;;;;;;;5.70;0.70;;;;;;;-149.78;100.00;50588.78;5027425;28;20128;-64
2021/12/02 01:56:30;;;;;;;3.05;0.82;;;;;;;-149.78;100.00;50545.75;5031260;28;20033;-64
2021/12/02 01:59:10;;;;;;;4.03;0.57;;;;;;;-149.78;100.00;50580.97;5026865;28;20464;-64
2021/12/02 02:01:37;;;;;;;2.38;0.60;;;;;;;-149.78;100.00;50565.31;5029499;28;20029;-64
2021/12/02 02:04:03;;;;;;;3.53;0.80;;;;;;;-149.78;100.00;50534.03;5031421;28;20025;-64
2021/12/02 02:07:03;;;;;;;5.65;0.88;;;;;;;-149.78;100.00;50557.50;5030414;28;20052;-64
2021/12/02 02:09:32;;;;;;;3.97;0.60;;;;;;;-149.78;100.00;50551.63;5033159;28;20042;-64
2021/12/02 02:12:01;;;;;;;1.63;0.63;;;;;;;-149.78;100.00;50514.47;5031170;28;20032;-64
2021/12/02 02:14:27;;;;;;;2.25;0.50;;;;;;;-149.78;100.00;50522.28;5031725;28;20037;-64
2021/12/02 02:16:54;;;;;;;1.55;0.50;;;;;;;-149.78;100.00;50532.06;5024527;28;20033;-64
2021/12/02 02:19:20;;;;;;;4.00;0.50;;;;;;;-149.78;100.00;50545.75;5020703;28;20443;-64
2021/12/02 02:21:47;;;;;;;5.78;1.10;;;;;;;-149.78;100.00;50530.13;5031566;28;20040;-64
2021/12/02 02:24:14;;;;;;;2.92;0.60;;;;;;;-149.78;100.00;50565.31;5030201;28;20030;-64
2021/12/02 02:26:41;;;;;;;6.93;0.50;;;;;;;-149.78;100.00;50573.16;5032936;28;20083;-64
2021/12/02 02:29:10;;;;;;;7.45;0.68;;;;;;;-149.78;100.00;50545.75;5029112;28;20036;-64
2021/12/02 02:31:38;;;;;;;1.95;0.60;;;;;;;-149.78;100.00;50534.03;5023037;28;20029;-64
2021/12/02 02:34:04;;;;;;;1.38;0.40;;;;;;;-149.78;100.00;50545.75;5022912;28;20053;-64
2021/12/02 02:36:33;;;;;;;4.25;0.45;;;;;;;-149.78;100.00;50553.59;5031403;28;20069;-64
2021/12/02 02:39:02;;;;;;;3.10;0.82;;;;;;;-149.78;100.00;50557.50;5025924;28;20037;-64
2021/12/02 02:41:38;;;;;;;2.55;0.60;;;;;;;-149.78;100.00;50584.88;5028253;28;20037;-64
2021/12/02 02:44:05;;;;;;;3.40;0.70;;;;;;;-149.78;100.00;50559.47;5029734;28;20025;-64
2021/12/02 02:46:38;;;;;;;0.85;0.40;;;;;;;-149.78;100.00;50561.41;5032400;28;20091;-64
2021/12/02 02:49:07;;;;;;;2.53;0.40;;;;;;;-149.78;100.00;50545.75;5030878;28;20032;-64
2021/12/02 02:51:36;;;;;;;3.20;0.55;;;;;;;-149.78;100.00;50579.00;5032951;28;21628;-64
2021/12/02 02:54:05;;;;;;;7.63;0.50;;;;;;;-149.78;100.00;50520.34;5029222;28;20044;-64
2021/12/02 02:56:35;;;;;;;3.40;0.40;;;;;;;-149.78;100.00;50565.31;5028552;28;20045;-64
2021/12/02 03:16:37;;;;;;;5.38;0.50;;;;;;;-149.78;100.00;50580.97;5030102;28;20365;-64
2021/12/02 03:17:18;;;;;;;2.35;0.80;;;;;;;-149.78;92.82;50588.78;5020622;28;20132;-64
2021/12/02 03:19:46;;;;;;;2.58;0.43;;;;;;;-149.78;90.98;50522.28;5028317;28;20504;-64
2021/12/02 03:22:13;;;;;;;1.88;0.65;;;;;;;-149.78;89.52;50532.06;5031169;28;20029;-64
2021/12/02 03:24:39;;;;;;;1.15;0.40;;;;;;;-149.78;91.94;50557.50;5024486;28;20026;-64
2021/12/02 03:27:05;;;;;;;2.63;0.70;;;;;;;-149.78;89.92;50575.09;5013473;28;20037;-64
2021/12/02 03:29:31;;;;;;;0.52;0.32;;;;;;;-149.78;91.51;50516.44;5020793;28;20029;-64
2021/12/02 03:31:56;;;;;;;2.05;0.50;;;;;;;-149.78;93.56;50551.63;5032412;28;20052;-64
2021/12/02 03:34:22;;;;;;;6.18;0.60;;;;;;;-149.78;91.94;50545.75;5029526;28;20041;-64
2021/12/02 03:36:51;;;;;;;0.68;0.40;;;;;;;-149.78;95.61;50549.69;5031149;28;20362;-64
2021/12/02 03:39:17;;;;;;;2.25;0.52;;;;;;;-149.78;95.89;50584.88;5030914;28;20025;-64
2021/12/02 03:41:43;;;;;;;1.23;0.45;;;;;;;-149.78;98.65;50577.06;5031421;28;20089;-64
2021/12/02 03:44:09;;;;;;;2.92;0.60;;;;;;;-149.78;97.46;50565.31;5029751;28;20132;-64
2021/12/02 03:46:37;;;;;;;3.42;0.60;;;;;;;-149.78;97.22;50553.59;5030752;28;20709;-64
2021/12/02 03:49:03;;;;;;;5.88;2.33;;;;;;;-149.78;99.55;50557.50;5031060;28;20048;-64
2021/12/02 03:51:30;;;;;;;3.72;0.57;;;;;;;-149.78;100.00;50573.16;5030183;28;20021;-64
2021/12/02 03:53:56;;;;;;;2.55;0.38;;;;;;;-149.78;100.00;50561.41;5031358;28;20045;-64
2021/12/02 03:56:22;;;;;;;6.15;0.65;;;;;;;-149.78;100.00;50545.75;5033922;28;20158;-64
2021/12/02 03:58:48;;;;;;;1.38;0.60;;;;;;;-149.78;100.00;50561.41;5036743;28;20041;-64
2021/12/02 04:01:15;;;;;;;1.85;0.63;;;;;;;-149.78;100.00;50553.59;5029766;28;20033;-64
2021/12/02 04:03:41;;;;;;;1.48;0.52;;;;;;;-149.78;100.00;50565.31;5035115;28;20033;-64
2021/12/02 04:06:08;;;;;;;4.28;0.52;;;;;;;-149.78;100.00;50557.50;5035471;28;20088;-64
2021/12/02 04:13:49;;;;;;;12.15;1.00;;;;;;;-149.78;100.00;50577.06;5028390;28;20064;-65
2021/12/02 04:16:17;;;;;;;1.23;0.35;;;;;;;-149.78;100.00;50549.69;5031505;28;20041;-65
2021/12/02 04:18:43;;;;;;;8.13;0.73;;;;;;;-149.78;100.00;50534.03;5035403;28;20053;-64
2021/12/02 04:21:09;;;;;;;1.27;0.47;;;;;;;-149.78;100.00;50553.59;5034532;28;20041;-64
2021/12/02 04:23:34;;;;;;;2.67;0.50;;;;;;;-149.78;100.00;50563.38;5029818;28;20029;-65
2021/12/02 04:26:00;;;;;;;5.07;0.80;;;;;;;-149.78;100.00;50565.31;5034934;28;20128;-64
2021/12/02 04:28:25;;;;;;;3.20;0.60;;;;;;;-149.78;100.00;50563.38;5033921;28;20033;-64
2021/12/02 04:30:51;;;;;;;2.35;0.50;;;;;;;-149.78;100.00;50549.69;5033591;28;20371;-65
2021/12/02 04:33:17;;;;;;;5.68;0.63;;;;;;;-149.78;100.00;50573.16;5031197;28;20026;-64
2021/12/02 04:35:43;;;;;;;7.00;0.95;;;;;;;-149.78;100.00;50534.03;5032873;28;20107;-64
2021/12/02 04:38:08;;;;;;;4.18;0.73;;;;;;;-149.78;100.00;50537.94;5034198;28;20039;-64
2021/12/02 04:40:36;;;;;;;3.65;0.57;;;;;;;-149.78;100.00;50557.50;5034044;28;20065;-64
2021/12/02 04:43:02;;;;;;;1.17;0.50;;;;;;;-149.78;100.00;50573.16;5033585;28;20033;-65
2021/12/02 04:45:28;;;;;;;5.13;0.40;;;;;;;-149.78;100.00;50573.16;5034154;28;20589;-64
2021/12/02 04:47:54;;;;;;;5.85;0.60;;;;;;;-149.78;100.00;50580.97;5029938;28;20030;-65
2021/12/02 04:50:20;;;;;;;2.95;0.50;;;;;;;-149.78;100.00;50545.75;5026802;28;20038;-64
2021/12/02 04:52:45;;;;;;;2.65;0.40;;;;;;;-149.78;100.00;50553.59;5030850;28;20030;-64
2021/12/02 04:55:11;;;;;;;1.95;0.63;;;;;;;-149.78;100.00;50553.59;5033984;28;20033;-64
2021/12/02 04:57:38;;;;;;;2.30;0.50;;;;;;;-149.78;100.00;50549.69;5025478;28;20371;-64
2021/12/02 05:00:05;;;;;;;1.67;0.60;;;;;;;-149.78;100.00;50553.59;5034406;28;20041;-64
2021/12/02 05:02:31;;;;;;;1.95;0.60;;;;;;;-149.78;100.00;50588.78;5034012;28;20044;-64
2021/12/02 05:04:56;;;;;;;5.97;0.70;;;;;;;-149.78;100.00;50561.41;5029361;28;20128;-64
2021/12/02 05:07:22;;;;;;;2.33;0.57;;;;;;;-149.78;100.00;50582.94;5033649;28;20045;-64
2021/12/02 05:09:48;;;;;;;3.55;0.57;;;;;;;-149.78;100.00;50561.41;5034310;28;20034;-64
2021/12/02 05:12:14;;;;;;;4.22;0.50;;;;;;;-149.78;100.00;50561.41;5031208;28;20037;-64
2021/12/02 05:14:40;;;;;;;1.50;0.55;;;;;;;-149.78;100.00;50559.47;5033493;28;20073;-64
2021/12/02 05:17:06;;;;;;;2.20;0.60;;;;;;;-149.78;100.00;50577.06;5022231;28;20056;-64
2021/12/02 05:19:31;;;;;;;2.28;1.10;;;;;;;-149.78;100.00;50569.22;5033149;28;20037;-64
2021/12/02 05:21:57;;;;;;;1.58;0.50;;;;;;;-149.78;100.00;50561.41;5033201;28;20029;-64
2021/12/02 05:24:22;;;;;;;3.03;0.63;;;;;;;-149.78;100.00;50584.88;5033422;28;20021;-64
2021/12/02 05:26:49;;;;;;;2.47;0.60;;;;;;;-149.78;100.00;50588.78;5032010;28;20038;-64
2021/12/02 05:29:15;;;;;;;2.70;0.65;;;;;;;-149.78;100.00;50539.91;5033966;28;20627;-64
2021/12/02 05:31:40;;;;;;;4.82;0.50;;;;;;;-149.78;100.00;50573.16;5032789;28;20072;-64
2021/12/02 05:34:06;;;;;;;1.88;0.65;;;;;;;-149.78;100.00;50604.44;5032693;28;20052;-64
2021/12/02 05:36:32;;;;;;;0.55;0.50;;;;;;;-149.78;100.00;50596.63;5033589;28;20304;-64
2021/12/02 05:38:57;;;;;;;0.50;0.45;;;;;;;-149.78;100.00;50592.72;5033982;28;20041;-64
2021/12/02 05:41:24;;;;;;;0.93;0.57;;;;;;;-149.78;100.00;50584.88;5032443;28;20037;-64
2021/12/02 05:43:49;;;;;;;0.80;0.50;;;;;;;-149.78;100.00;50579.00;5034010;28;20029;-64
2021/12/02 05:46:15;;;;;;;1.45;0.52;;;;;;;-149.78;100.00;50561.41;5032724;28;20034;-64
2021/12/02 05:48:42;;;;;;;3.92;0.40;;;;;;;-149.78;100.00;50561.41;5033669;28;20672;-64
2021/12/02 05:51:08;;;;;;;2.63;0.40;;;;;;;-149.78;100.00;50561.41;5031022;28;20029;-64
2021/12/02 05:53:34;;;;;;;0.85;0.60;;;;;;;-149.78;100.00;50573.16;5032943;28;20033;-64
2021/12/02 05:55:59;;;;;;;2.05;0.65;;;;;;;-149.78;100.00;50604.44;5024101;28;20396;-64
2021/12/02 05:58:25;;;;;;;3.95;0.52;;;;;;;-149.78;100.00;50588.78;5030831;28;20122;-64
2021/12/02 06:00:51;;;;;;;3.33;0.32;;;;;;;-149.78;100.00;50584.88;5032973;28;20480;-64
2021/12/02 06:03:17;;;;;;;2.15;0.65;;;;;;;-149.78;100.00;50586.84;5031652;28;20029;-64
2021/12/02 06:05:45;;;;;;;1.50;0.50;;;;;;;-149.78;100.00;50541.84;5032422;28;20389;-64
2021/12/02 06:08:11;;;;;;;5.18;0.70;;;;;;;-149.78;100.00;50582.94;5031986;28;20025;-64
2021/12/02 06:10:36;;;;;;;5.20;0.60;;;;;;;-149.78;100.00;50539.91;5033571;28;20056;-64
2021/12/02 06:13:02;;;;;;;1.88;0.70;;;;;;;-149.78;100.00;50620.09;5032278;28;20492;-64
2021/12/02 06:15:27;;;;;;;3.08;0.50;;;;;;;-149.78;100.00;50549.69;5032862;28;20400;-64
2021/12/02 06:17:53;;;;;;;3.13;0.60;;;;;;;-149.78;100.00;50565.31;5026287;28;20041;-64
2021/12/02 06:20:19;;;;;;;3.58;0.82;;;;;;;-149.78;100.00;50584.88;5032944;28;20026;-64
2021/12/02 06:22:45;;;;;;;3.10;0.52;;;;;;;-149.78;100.00;50588.78;5031695;28;20033;-64
2021/12/02 06:27:46;;;;;;;1.52;0.60;;;;;;;-149.78;100.00;50594.66;5032212;28;20033;-64
2021/12/02 06:30:14;;;;;;;4.15;0.50;;;;;;;-149.78;100.00;50579.00;5030158;28;20039;-64
2021/12/02 06:32:40;;;;;;;1.15;0.45;;;;;;;-149.78;100.00;50592.72;5032365;28;20029;-64
2021/12/02 06:35:07;;;;;;;3.05;0.60;;;;;;;-149.78;100.00;50565.31;5032377;28;20060;-64
2021/12/02 06:37:33;;;;;;;2.60;0.88;;;;;;;-149.78;100.00;50598.56;5030740;28;20357;-64
2021/12/02 06:39:58;;;;;;;3.72;0.68;;;;;;;-149.78;100.00;50561.41;5031826;28;20484;-64
2021/12/02 06:42:24;;;;;;;3.08;0.77;;;;;;;-149.78;100.00;50573.16;5031687;28;20061;-64
2021/12/02 06:44:50;;;;;;;6.18;0.50;;;;;;;-149.78;100.00;50549.69;5032604;28;20042;-64
2021/12/02 06:47:15;;;;;;;2.30;0.75;;;;;;;-149.78;100.00;50579.00;5030843;28;20065;-64
2021/12/02 06:49:41;;;;;;;1.50;0.52;;;;;;;-149.78;100.00;50582.94;5030050;28;20041;-63
2021/12/02 06:52:12;;;;;;;1.02;0.50;;;;;;;-149.78;100.00;50557.50;5031533;28;20033;-64
2021/12/02 06:54:39;;;;;;;5.47;0.40;;;;;;;-149.78;100.00;50553.59;5032034;28;20480;-64
2021/12/02 06:57:05;;;;;;;3.50;0.40;;;;;;;-149.78;100.00;50584.88;5030099;28;20033;-64
2021/12/02 06:59:31;;;;;;;1.27;0.38;;;;;;;-149.78;100.00;50588.78;5031552;28;20037;-64
2021/12/02 07:01:57;;;;;;;0.88;0.35;;;;;;;-149.78;100.00;50604.44;5032335;28;20405;-64
2021/12/02 07:04:23;;;;;;;6.53;0.60;;;;;;;-149.78;100.00;50608.34;5026109;28;20548;-64
2021/12/02 07:06:49;;;;;;;1.92;0.80;;;;;;;-149.78;100.00;50625.94;5029989;28;20055;-64
2021/12/02 07:09:15;;;;;;;2.85;0.70;;;;;;;-149.78;100.00;50592.72;5027679;28;20119;-64
2021/12/02 07:11:42;;;;;;;2.60;0.85;;;;;;;-149.78;100.00;50571.19;5027311;28;20121;-64
2021/12/02 07:14:17;;;;;;;0.77;0.43;;;;;;;-149.78;100.00;50553.59;5031624;28;20465;-64
2021/12/02 07:16:43;;;;;;;2.15;0.50;;;;;;;-149.78;100.00;50555.53;5029049;28;20370;-64
2021/12/02 07:19:09;;;;;;;3.25;0.60;;;;;;;-149.78;100.00;50545.75;5031469;28;20037;-63
2021/12/02 07:21:39;;;;;;;5.85;0.73;;;;;;;-149.78;100.00;50596.63;5024340;28;20029;-64
2021/12/02 07:24:06;;;;;;;3.72;0.57;;;;;;;-149.78;100.00;50565.31;5030270;28;20029;-65
2021/12/02 07:26:33;;;;;;;4.95;1.27;;;;;;;-149.78;100.00;50549.69;5031104;28;20044;-68
2021/12/02 07:28:59;;;;;;;4.90;1.17;;;;;;;-149.78;100.00;50584.88;5028970;28;20116;-68
2021/12/02 07:31:29;;;;;;;1.00;0.50;;;;;;;-149.78;100.00;50580.97;5030636;28;20124;-65
2021/12/02 07:33:57;;;;;;;4.13;0.63;;;;;;;-149.78;100.00;50580.97;5039215;28;20044;-66
2021/12/02 07:36:24;;;;;;;0.60;0.40;;;;;;;-149.78;100.00;50561.41;5023925;28;20083;-64
2021/12/02 07:38:50;;;;;;;3.47;0.75;;;;;;;-149.78;100.00;50569.22;5028557;28;20133;-64
2021/12/02 07:41:15;;;;;;;3.78;0.60;;;;;;;-149.78;100.00;50561.41;5029863;28;20088;-64
2021/12/02 07:43:41;;;;;;;2.33;0.40;;;;;;;-149.78;100.00;50588.78;5028113;28;20025;-64
2021/12/02 07:46:08;;;;;;;2.35;0.60;;;;;;;-149.78;100.00;50584.88;5030193;28;20045;-64
2021/12/02 07:48:35;;;;;;;1.60;0.40;;;;;;;-149.78;100.00;50577.06;5029312;28;20042;-65
2021/12/02 07:51:07;;;;;;;1.98;0.57;;;;;;;-149.78;100.00;50592.72;5025262;28;20041;-64
2021/12/02 07:53:32;;;;;;;;;;;;;;;-149.78;100.00;50573.16;5029948;28;20037;-64
2021/12/02 07:56:07;;;;;;;3.53;0.68;;;;;;;-149.78;100.00;50569.22;5028669;28;19917;-64
2021/12/02 07:58:34;;;;;;;4.88;0.65;;;;;;;-149.78;100.00;50541.84;5030732;28;20404;-65
2021/12/02 08:01:01;;;;;;;2.67;0.55;;;;;;;-149.78;100.00;50580.97;5029210;28;20404;-68
2021/12/02 08:03:29;;;;;;;1.83;1.00;;;;;;;-149.78;100.00;50577.06;5030543;28;20038;-65
2021/12/02 08:05:54;;;;;;;4.70;0.90;;;;;;;-149.78;100.00;50561.41;5029248;28;20057;-65
2021/12/02 08:08:20;;;;;;;4.97;0.95;;;;;;;-149.78;100.00;50535.97;5030000;28;20022;-66
2021/12/02 08:10:46;;;;;;;6.03;0.80;;;;;;;-149.78;100.00;50561.41;5029778;28;20025;-66
2021/12/02 08:13:15;;;;;;;2.35;0.45;;;;;;;-149.78;100.00;50592.72;5028720;28;20029;-65
2021/12/02 08:15:42;;;;;;;3.97;0.57;;;;;;;-149.78;100.00;50586.84;5028146;28;20044;-65
2021/12/02 08:18:09;;;;;;;2.70;0.70;;;;;;;-149.78;100.00;50557.50;5029574;28;20040;-65
2021/12/02 08:20:36;;;;;;;1.80;0.50;;;;;;;-149.78;100.00;50561.41;5030239;28;20037;-65
2021/12/02 08:23:02;;;;;;;3.42;0.68;;;;;;;-149.78;100.00;50563.38;5031125;28;20022;-65
2021/12/02 08:25:30;;;;;;;1.65;0.60;;;;;;;-149.78;100.00;50565.31;5031118;28;20030;-64
2021/12/02 08:27:59;;;;;;;3.22;0.60;;;;;;;-149.78;100.00;50565.31;5030663;28;20037;-65
2021/12/02 08:30:26;;;;;;;4.20;0.82;;;;;;;-149.78;100.00;50557.50;5029761;28;20028;-65
2021/12/02 08:32:53;;;;;;;2.58;0.80;;;;;;;-149.78;100.00;50549.69;5031611;28;20116;-65
2021/12/02 08:35:20;;;;;;;8.32;1.23;;;;;;;-149.78;100.00;50590.75;5029532;28;20033;-65
2021/12/02 08:37:49;;;;;;;7.88;0.88;;;;;;;-149.78;100.00;50557.50;5031338;28;20078;-65
2021/12/02 08:40:18;;;;;;;3.85;0.82;;;;;;;-149.78;100.00;50555.53;5029813;28;20031;-65
2021/12/02 08:42:47;;;;;;;2.20;0.70;;;;;;;-149.78;100.00;50553.59;5029790;28;20026;-65
2021/12/02 08:45:13;;;;;;;2.55;0.75;;;;;;;-149.78;100.00;50577.06;5033797;28;20026;-65
2021/12/02 08:47:45;;;;;;;4.63;1.10;;;;;;;-149.78;100.00;50584.88;5034541;28;20115;-65
2021/12/02 08:50:17;;;;;;;4.43;0.80;;;;;;;-149.78;100.00;50588.78;5033473;28;20029;-65
2021/12/02 08:52:43;;;;;;;3.45;0.73;;;;;;;-149.78;100.00;50563.38;5033938;28;20112;-65
2021/12/02 08:55:09;;;;;;;9.93;1.08;;;;;;;-149.78;100.00;50588.78;5031974;28;20033;-65
2021/12/02 08:57:36;;;;;;;3.85;0.77;;;;;;;-149.78;100.00;50530.13;5033956;28;20376;-65
2021/12/02 09:00:05;;;;;;;5.05;0.70;;;;;;;-149.78;100.00;50541.84;5033585;28;20033;-65
2021/12/02 09:02:31;;;;;;;2.63;0.75;;;;;;;-149.78;100.00;50514.47;5034728;28;20114;-65
2021/12/02 09:04:57;;;;;;;4.85;1.00;;;;;;;-149.78;100.00;50522.28;5034163;28;20476;-65
2021/12/02 09:07:24;;;;;;;7.32;1.00;;;;;;;-149.78;100.00;50584.88;5033916;28;20037;-65
2021/12/02 09:09:49;;;;;;;5.70;0.90;;;;;;;-149.78;100.00;50582.94;5033478;28;20041;-65
2021/12/02 09:12:16;;;;;;;7.82;2.75;;;;;;;-149.78;100.00;50545.75;5033740;28;20545;-65
2021/12/02 09:14:41;;;;;;;4.53;0.88;;;;;;;-149.78;100.00;50555.53;5033889;28;20037;-65
2021/12/02 09:17:07;;;;;;;1.80;0.95;;;;;;;-149.78;100.00;50604.44;5034421;28;20480;-65
2021/12/02 09:19:33;;;;;;;6.50;1.20;;;;;;;-149.78;100.00;50606.41;5033509;28;20453;-65
2021/12/02 09:21:59;;;;;;;1.77;0.93;;;;;;;-149.78;100.00;50584.88;5033457;28;20516;-65
2021/12/02 09:24:25;;;;;;;5.38;0.85;;;;;;;-149.78;100.00;50573.16;5034070;28;20053;-65
2021/12/02 09:26:52;;;;;;;7.43;1.30;;;;;;;-149.78;100.00;50549.69;5032753;28;20567;-65
2021/12/02 09:29:19;;;;;;;4.97;1.33;;;;;;;-149.78;100.00;50537.94;5033404;28;20030;-65
2021/12/02 09:31:47;;;;;;;2.58;0.82;;;;;;;-149.78;100.00;50600.53;5032638;28;20033;-65
2021/12/02 09:34:14;;;;;;;3.50;0.90;;;;;;;-149.78;100.00;50541.84;5033215;28;20038;-65
2021/12/02 09:36:40;;;;;;;4.20;0.90;;;;;;;-149.78;100.00;50547.72;5032968;28;20030;-65
2021/12/02 09:39:08;;;;;;;10.75;1.15;;;;;;;-149.78;100.00;50580.97;5032446;28;20033;-65
2021/12/02 09:41:35;;;;;;;6.68;1.30;;;;;;;-149.78;100.00;50596.63;5033376;28;20381;-65
2021/12/02 09:44:02;;;;;;;10.15;1.30;;;;;;;-149.78;100.00;50557.50;5032842;28;20561;-65
2021/12/02 09:46:28;;;;;;;7.85;1.38;;;;;;;-149.78;100.00;50535.97;5029090;28;20029;-65
2021/12/02 09:48:57;;;;;;;5.93;1.02;;;;;;;-149.78;100.00;50553.59;5032857;28;20029;-65
2021/12/02 09:51:32;;;;;;;8.75;1.10;;;;;;;-149.78;100.00;50541.84;5033842;28;20444;-65
2021/12/02 09:54:07;;;;;;;4.43;1.55;;;;;;;-149.78;100.00;50526.22;5033184;28;20120;-65
2021/12/02 09:56:35;;;;;;;4.10;1.40;;;;;;;-149.78;100.00;50588.78;5027124;28;20030;-65
2021/12/02 09:59:09;;;;;;;5.13;1.38;;;;;;;-149.78;100.00;50555.53;5033945;28;20044;-66
2021/12/02 10:01:48;;;;;;;6.90;1.17;;;;;;;-149.78;100.00;50545.75;5032449;28;20041;-66
2021/12/02 10:04:14;;;;;;;8.80;1.80;;;;;;;-149.78;100.00;50561.41;5032653;28;20034;-66
2021/12/02 10:06:43;;;;;;;7.63;1.10;;;;;;;-149.78;100.00;50573.16;5032288;28;20048;-66
2021/12/02 10:09:14;;;;;;;5.13;1.52;;;;;;;-149.78;100.00;50534.03;5033523;28;20029;-66
2021/12/02 10:11:57;;;;;;;5.85;1.55;;;;;;;-149.78;100.00;50541.84;5033164;28;20038;-66
2021/12/02 10:14:38;;;;;;;8.63;1.30;;;;;;;-149.78;100.00;50565.31;5032725;28;20128;-66
2021/12/02 10:17:10;;;;;;;2.92;1.40;;;;;;;-149.78;100.00;50553.59;5031083;28;20029;-66
2021/12/02 10:19:36;;;;;;;6.57;1.52;;;;;;;-149.78;100.00;50524.25;5032891;28;20061;-66
2021/12/02 10:22:11;;;;;;;8.25;1.35;;;;;;;-149.78;100.00;50571.19;5031548;28;20033;-66
2021/12/02 10:24:43;;;;;;;8.25;1.70;;;;;;;-149.78;100.00;50557.50;5031401;28;20034;-66
2021/12/02 10:27:10;;;;;;;4.25;1.00;;;;;;;-149.78;100.00;50553.59;5030318;28;20033;-66
2021/12/02 10:29:38;;;;;;;5.60;1.40;;;;;;;-149.78;100.00;50551.63;5029804;28;20484;-66
2021/12/02 10:32:13;;;;;;;9.32;1.42;;;;;;;-149.78;100.00;50549.69;5032811;28;20029;-66
2021/12/02 10:34:52;;;;;;;10.25;1.67;;;;;;;-149.78;100.00;50518.38;5031892;28;20061;-66
2021/12/02 10:37:20;;;;;;;7.57;1.35;;;;;;;-149.78;100.00;50555.53;5033245;28;20026;-66
2021/12/02 10:40:10;;;;;;;7.18;1.67;;;;;;;-149.78;100.00;50541.84;5031991;28;20392;-66
2021/12/02 10:42:41;;;;;;;8.48;1.38;;;;;;;-149.78;100.00;50537.94;5025695;28;20104;-66
2021/12/02 10:45:22;;;;;;;7.20;1.67;;;;;;;-149.78;100.00;50549.69;5032668;28;20025;-66
2021/12/02 10:47:52;;;;;;;6.00;1.45;;;;;;;-149.78;100.00;50557.50;5024476;28;20274;-66
2021/12/02 10:50:20;;;;;;;6.18;1.42;;;;;;;-149.78;100.00;50573.16;5032544;28;20051;-66
2021/12/02 10:52:46;;;;;;;8.00;1.90;;;;;;;-149.78;100.00;50580.97;5031786;28;20584;-66
2021/12/02 10:55:15;;;;;;;8.52;1.63;;;;;;;-149.78;100.00;50514.47;5030793;28;20132;-66
2021/12/02 10:57:56;;;;;;;7.93;1.80;;;;;;;-149.78;100.00;50547.72;5032928;28;20048;-66
2021/12/02 11:00:24;;;;;;;11.93;1.70;;;;;;;-149.78;100.00;50518.38;5031649;28;20491;-66
2021/12/02 11:02:53;;;;;;;8.23;1.60;;;;;;;-149.78;100.00;50553.59;5030127;28;20087;-66
2021/12/02 11:05:31;;;;;;;8.30;2.00;;;;;;;-149.78;100.00;50557.50;5029639;28;20041;-66
2021/12/02 11:08:05;;;;;;;12.63;2.85;;;;;;;-149.78;100.00;50541.84;5030914;28;20033;-66
2021/12/02 11:10:33;;;;;;;5.25;1.50;;;;;;;-149.78;100.00;50534.03;5032275;28;20099;-66
2021/12/02 11:12:58;;;;;;;5.80;1.60;;;;;;;-149.78;100.00;50561.41;5031819;28;20037;-66
2021/12/02 11:15:27;;;;;;;8.35;1.83;;;;;;;-149.78;100.00;50516.44;5030592;28;20121;-66
2021/12/02 11:17:57;;;;;;;5.60;1.58;;;;;;;-149.78;100.00;50541.84;5031777;28;20472;-66
2021/12/02 11:20:35;;;;;;;5.97;1.45;;;;;;;-149.78;100.00;50530.13;5031987;28;20472;-66
2021/12/02 11:23:05;;;;;;;11.00;2.55;;;;;;;-149.78;100.00;50553.59;5032530;28;20040;-66
2021/12/02 11:25:33;;;;;;;5.93;1.60;;;;;;;-149.78;100.00;50510.56;5023108;28;20056;-66
2021/12/02 11:28:05;;;;;;;12.45;1.73;;;;;;;-149.78;100.00;50545.75;5030980;28;20488;-66
2021/12/02 11:30:31;;;;;;;8.15;1.15;;;;;;;-149.78;100.00;50526.22;5032187;28;20037;-65
2021/12/02 11:33:04;;;;;;;4.85;1.15;;;;;;;-149.78;100.00;50537.94;5030930;28;20080;-65
2021/12/02 11:35:39;;;;;;;4.57;1.35;;;;;;;-149.78;100.00;50543.81;5031812;28;20026;-65
2021/12/02 11:38:22;;;;;;;6.97;1.35;;;;;;;-149.78;100.00;50506.66;5030936;28;20033;-65
2021/12/02 11:40:55;;;;;;;8.82;1.58;;;;;;;-149.78;100.00;50530.13;5032007;28;20033;-66
2021/12/02 11:43:24;;;;;;;9.00;2.60;;;;;;;-149.78;100.00;50530.13;5031262;28;20057;-66